Bethlehem, North Carolina
Current Conditions -  °F | °C
As of 1:53 AM on Thursday 23 Oct 2014 (Local Time) from KHKY Reporting Station
Clear Clear  
Wind Chill: 42°   Ceiling: Unl
Heat Index: 44°   Visibility: 10mi
Dew Point: 37°   Wind: 5mph
Humidity: 76%   Direction: 250°WSW
Pressure: 30.1"   Gusts: NA
Location:  35.7628°N, 81.3219°W
Report Text: KHKY 230553Z AUTO 25004KT 10SM CLR 07/03 A3010 RMK AO2 SLP181 T00670028 10106 20056 56003
Loading
Personal Weather Stations






























Interactive Weather Map
Tropical Storm Tracking
New forecast layout! Learn more

10-Day Weather Forecast

Advertisements
Track Severe Weather on mobile